createdAt,value
2023-06-30T00:00:12.875Z,622.70
2023-06-30T00:02:42.389Z,597.88
2023-06-30T00:05:12.381Z,600.65
2023-06-30T00:07:41.004Z,594.92
2023-06-30T00:10:10.445Z,615.20
2023-06-30T00:12:38.809Z,613.13
2023-06-30T00:15:07.839Z,608.13
2023-06-30T00:17:36.591Z,607.35
2023-06-30T00:20:07.022Z,604.15
2023-06-30T00:22:37.206Z,614.10
2023-06-30T00:25:06.090Z,624.60
2023-06-30T00:27:34.451Z,604.03
2023-06-30T00:30:02.500Z,605.00
2023-06-30T00:32:32.880Z,588.67
2023-06-30T00:35:01.200Z,595.35
2023-06-30T00:37:29.283Z,598.80
2023-06-30T00:39:58.670Z,592.77
2023-06-30T00:42:26.682Z,592.97
2023-06-30T00:44:55.245Z,589.67
2023-06-30T00:47:23.577Z,571.07
2023-06-30T00:49:51.601Z,585.28
2023-06-30T00:52:19.691Z,592.37
2023-06-30T00:54:47.729Z,585.20
2023-06-30T00:57:17.177Z,564.97
2023-06-30T00:59:45.219Z,551.23
2023-06-30T01:02:21.701Z,551.23
2023-06-30T01:04:59.815Z,549.30
2023-06-30T01:07:33.496Z,566.57
2023-06-30T01:10:06.265Z,578.37
2023-06-30T01:12:36.885Z,568.50
2023-06-30T01:15:06.496Z,578.17
2023-06-30T01:17:35.989Z,580.93
2023-06-30T01:20:07.946Z,557.23
2023-06-30T01:22:44.925Z,550.67
2023-06-30T01:25:19.686Z,551.33
2023-06-30T01:27:50.449Z,546.77
2023-06-30T01:30:19.848Z,553.03
2023-06-30T01:32:51.567Z,541.03
2023-06-30T01:35:20.034Z,541.07
2023-06-30T01:37:48.043Z,539.30
2023-06-30T01:40:18.104Z,550.37
2023-06-30T01:42:48.608Z,532.33
2023-06-30T01:45:18.113Z,537.87
2023-06-30T01:47:46.385Z,552.00
2023-06-30T01:50:15.519Z,541.20
2023-06-30T01:52:44.105Z,541.47
2023-06-30T01:55:12.134Z,530.20
2023-06-30T01:57:40.168Z,541.33
2023-06-30T02:00:10.748Z,523.87
2023-06-30T02:02:39.044Z,525.90
2023-06-30T02:05:07.428Z,520.13
2023-06-30T02:07:35.635Z,529.10
2023-06-30T02:10:03.945Z,536.23
2023-06-30T02:12:31.960Z,531.03
2023-06-30T02:14:59.973Z,516.50
2023-06-30T02:17:32.396Z,536.10
2023-06-30T02:20:00.705Z,526.13
2023-06-30T02:22:28.863Z,528.47
2023-06-30T02:24:57.552Z,508.87
2023-06-30T02:27:25.941Z,534.43
2023-06-30T02:29:53.947Z,544.87
2023-06-30T02:32:21.985Z,530.43
2023-06-30T02:34:51.430Z,520.07
2023-06-30T02:37:19.449Z,508.23
2023-06-30T02:39:47.455Z,507.80
2023-06-30T02:42:15.432Z,520.67
2023-06-30T02:44:43.435Z,509.30
2023-06-30T02:47:11.486Z,517.77
2023-06-30T02:49:39.496Z,500.33
2023-06-30T02:52:09.503Z,520.67
2023-06-30T02:54:37.930Z,513.83
2023-06-30T02:57:06.673Z,538.70
2023-06-30T02:59:34.645Z,510.73
2023-06-30T03:02:03.938Z,508.43
2023-06-30T03:04:33.062Z,513.40
2023-06-30T03:07:01.106Z,509.17
2023-06-30T03:09:30.575Z,501.07
2023-06-30T03:11:58.593Z,514.93
2023-06-30T03:14:26.599Z,514.07
2023-06-30T03:16:54.681Z,523.90
2023-06-30T03:19:22.723Z,493.27
2023-06-30T03:21:50.689Z,515.53
2023-06-30T03:24:18.728Z,517.87
2023-06-30T03:26:48.911Z,516.43
2023-06-30T03:29:16.899Z,513.90
2023-06-30T03:31:44.864Z,507.43
2023-06-30T03:34:13.471Z,514.00
2023-06-30T03:36:41.468Z,519.80
2023-06-30T03:39:09.513Z,513.40
2023-06-30T03:41:37.644Z,511.80
2023-06-30T03:44:07.092Z,525.53
2023-06-30T03:46:35.421Z,508.50
2023-06-30T03:49:03.520Z,520.80
2023-06-30T03:51:31.683Z,514.67
2023-06-30T03:53:59.778Z,511.33
2023-06-30T03:56:27.774Z,517.00
2023-06-30T03:58:55.778Z,517.70
2023-06-30T04:01:26.830Z,521.37
2023-06-30T04:03:55.179Z,519.93
2023-06-30T04:06:23.321Z,519.03
2023-06-30T04:08:51.288Z,504.83
2023-06-30T04:11:19.270Z,536.23
2023-06-30T04:13:48.708Z,522.97
2023-06-30T04:16:18.566Z,534.10
2023-06-30T04:18:47.980Z,524.67
2023-06-30T04:21:15.996Z,510.73
2023-06-30T04:23:43.967Z,525.83
2023-06-30T04:26:12.000Z,520.83
2023-06-30T04:28:40.017Z,517.73
2023-06-30T04:31:08.084Z,522.33
2023-06-30T04:33:36.125Z,509.33
2023-06-30T04:36:08.344Z,530.83
2023-06-30T04:38:36.605Z,526.23
2023-06-30T04:41:04.787Z,544.00
2023-06-30T04:43:33.973Z,548.10
2023-06-30T04:46:02.081Z,530.90
2023-06-30T04:48:30.190Z,547.13
2023-06-30T04:50:58.160Z,536.60
2023-06-30T04:53:27.530Z,559.47
2023-06-30T04:55:55.647Z,567.10
2023-06-30T04:58:23.667Z,564.10
2023-06-30T05:00:51.712Z,581.85
2023-06-30T05:03:20.456Z,572.57
2023-06-30T05:05:48.526Z,580.83
2023-06-30T05:08:16.628Z,571.35
2023-06-30T05:10:46.070Z,578.20
2023-06-30T05:13:14.083Z,588.93
2023-06-30T05:15:42.242Z,579.87
2023-06-30T05:18:10.375Z,573.93
2023-06-30T05:20:40.406Z,578.27
2023-06-30T05:23:08.459Z,577.37
2023-06-30T05:25:36.682Z,581.50
2023-06-30T05:28:06.343Z,561.60
2023-06-30T05:30:34.334Z,582.20
2023-06-30T05:33:02.392Z,588.70
2023-06-30T05:35:30.372Z,589.90
2023-06-30T05:37:58.395Z,597.70
2023-06-30T05:40:26.388Z,606.33
2023-06-30T05:42:54.345Z,627.70
2023-06-30T05:45:23.789Z,624.13
2023-06-30T05:47:51.770Z,634.03
2023-06-30T05:50:23.002Z,642.90
2023-06-30T05:52:51.162Z,617.53
2023-06-30T05:55:19.220Z,641.57
2023-06-30T05:57:47.244Z,635.93
2023-06-30T06:00:16.461Z,621.63
2023-06-30T06:02:45.888Z,670.20
2023-06-30T06:05:14.082Z,640.75
2023-06-30T06:07:42.471Z,644.97
2023-06-30T06:10:11.252Z,670.67
2023-06-30T06:12:41.009Z,646.50
2023-06-30T06:15:10.293Z,667.60
2023-06-30T06:17:38.345Z,652.70
2023-06-30T06:20:08.852Z,686.80
2023-06-30T06:22:36.856Z,671.25
2023-06-30T06:25:05.390Z,650.50
2023-06-30T06:27:35.856Z,699.17
2023-06-30T06:30:05.236Z,679.22
2023-06-30T06:32:33.302Z,695.35
2023-06-30T06:35:01.382Z,689.65
2023-06-30T06:37:30.738Z,682.90
2023-06-30T06:39:58.735Z,684.00
2023-06-30T06:42:26.704Z,697.53
2023-06-30T06:44:54.825Z,666.38
2023-06-30T06:48:00.392Z,680.53
2023-06-30T06:50:28.463Z,677.67
2023-06-30T06:52:57.885Z,680.78
2023-06-30T06:55:25.934Z,740.65
2023-06-30T06:57:55.024Z,663.45
2023-06-30T07:00:23.268Z,660.03
2023-06-30T07:02:51.357Z,658.80
2023-06-30T07:05:19.560Z,653.63
2023-06-30T07:07:48.199Z,681.13
2023-06-30T07:10:17.747Z,677.83
2023-06-30T07:12:45.719Z,667.03
2023-06-30T07:15:13.748Z,658.05
2023-06-30T07:17:42.653Z,674.45
2023-06-30T07:20:12.112Z,669.45
2023-06-30T07:22:40.092Z,629.90
2023-06-30T07:25:08.607Z,645.28
2023-06-30T07:27:39.849Z,641.92
2023-06-30T07:30:08.823Z,645.92
2023-06-30T07:32:36.826Z,642.08
2023-06-30T07:35:05.162Z,638.60
2023-06-30T07:37:33.178Z,627.40
2023-06-30T07:40:15.392Z,635.17
2023-06-30T07:42:46.752Z,621.67
2023-06-30T07:45:16.638Z,644.70
2023-06-30T07:47:46.880Z,621.80
2023-06-30T07:50:16.358Z,633.45
2023-06-30T07:52:45.749Z,638.63
2023-06-30T07:55:14.803Z,622.80
2023-06-30T07:57:42.888Z,641.42
2023-06-30T08:00:16.545Z,637.95
2023-06-30T08:02:44.807Z,640.05
2023-06-30T08:05:13.367Z,632.58
2023-06-30T08:07:48.627Z,642.13
2023-06-30T08:10:18.080Z,630.42
2023-06-30T08:12:46.278Z,621.35
2023-06-30T08:15:15.815Z,622.08
2023-06-30T08:17:54.694Z,636.83
2023-06-30T08:20:25.809Z,618.90
2023-06-30T08:22:54.454Z,657.55
2023-06-30T08:25:24.530Z,648.63
2023-06-30T08:27:53.232Z,634.40
2023-06-30T08:30:24.894Z,648.20
2023-06-30T08:32:55.518Z,654.95
2023-06-30T08:35:23.990Z,673.70
2023-06-30T08:37:53.480Z,656.10
2023-06-30T08:40:26.661Z,661.38
2023-06-30T08:42:57.331Z,665.08
2023-06-30T08:45:28.947Z,672.75
2023-06-30T08:48:00.756Z,682.97
2023-06-30T08:50:29.708Z,692.47
2023-06-30T08:52:57.752Z,708.35
2023-06-30T08:55:25.848Z,721.25
2023-06-30T08:57:57.358Z,715.30
2023-06-30T09:00:27.946Z,716.95
2023-06-30T09:02:57.324Z,716.50
2023-06-30T09:05:26.720Z,713.80
2023-06-30T09:07:56.292Z,752.53
2023-06-30T09:10:26.650Z,744.78
2023-06-30T09:12:56.400Z,740.45
2023-06-30T09:15:26.074Z,743.67
2023-06-30T09:17:56.966Z,745.67
2023-06-30T09:20:25.156Z,745.45
2023-06-30T09:22:56.830Z,749.47
2023-06-30T09:25:45.064Z,751.47
2023-06-30T09:28:15.590Z,740.03
2023-06-30T09:30:47.047Z,735.88
2023-06-30T09:33:17.563Z,721.85
2023-06-30T09:35:47.050Z,715.60
2023-06-30T09:38:16.406Z,726.30
2023-06-30T09:40:45.490Z,713.15
2023-06-30T09:43:19.300Z,719.53
2023-06-30T09:45:49.454Z,735.78
2023-06-30T09:48:19.307Z,731.75
2023-06-30T09:50:47.315Z,720.90
2023-06-30T09:53:20.796Z,715.78
2023-06-30T09:55:50.632Z,765.00
2023-06-30T09:58:20.108Z,727.22
2023-06-30T10:00:48.922Z,732.63
2023-06-30T10:03:18.363Z,723.33
2023-06-30T10:05:49.425Z,722.50
2023-06-30T10:08:18.260Z,730.90
2023-06-30T10:10:46.297Z,714.42
2023-06-30T10:13:17.434Z,703.63
2023-06-30T10:15:46.461Z,701.85
2023-06-30T10:18:18.256Z,704.05
2023-06-30T10:20:50.011Z,693.38
2023-06-30T10:23:20.606Z,675.97
2023-06-30T10:25:50.260Z,668.05
2023-06-30T10:28:19.176Z,651.72
2023-06-30T10:30:48.082Z,632.53
2023-06-30T10:33:16.154Z,623.70
2023-06-30T10:35:45.136Z,639.08
2023-06-30T10:38:15.131Z,653.90
2023-06-30T10:40:43.206Z,664.80
2023-06-30T10:43:12.262Z,714.70
2023-06-30T10:46:06.430Z,698.72
2023-06-30T10:48:35.292Z,691.58
2023-06-30T10:51:06.513Z,697.60
2023-06-30T10:53:37.525Z,687.00
2023-06-30T10:56:06.052Z,690.25
2023-06-30T10:58:42.896Z,664.78
2023-06-30T11:01:10.880Z,667.10
2023-06-30T11:04:13.817Z,650.28
2023-06-30T11:06:47.332Z,632.83
2023-06-30T11:09:16.696Z,613.53
2023-06-30T11:11:51.489Z,623.70
2023-06-30T11:14:33.960Z,608.67
2023-06-30T11:17:06.555Z,600.03
2023-06-30T11:19:36.874Z,588.77
2023-06-30T11:22:22.941Z,615.90
2023-06-30T11:24:52.450Z,601.57
2023-06-30T11:27:23.380Z,614.90
2023-06-30T11:29:52.328Z,607.50
2023-06-30T11:32:26.754Z,619.35
2023-06-30T11:34:56.474Z,607.93
2023-06-30T11:37:24.643Z,606.87
2023-06-30T11:39:54.380Z,617.37
2023-06-30T11:42:22.961Z,600.35
2023-06-30T11:44:51.650Z,596.47
2023-06-30T11:47:23.810Z,598.40
2023-06-30T11:49:52.504Z,598.42
2023-06-30T11:52:21.401Z,612.50
2023-06-30T11:54:49.411Z,605.50
2023-06-30T11:57:18.865Z,619.50
2023-06-30T11:59:47.280Z,639.58
2023-06-30T12:02:15.355Z,653.58
2023-06-30T12:04:49.405Z,666.45
2023-06-30T12:07:17.900Z,686.85
2023-06-30T12:09:47.949Z,691.53
2023-06-30T12:12:29.395Z,686.85
2023-06-30T12:14:58.281Z,696.28
2023-06-30T12:17:30.040Z,688.13
2023-06-30T12:19:58.270Z,666.67
2023-06-30T12:22:28.345Z,702.70
2023-06-30T12:24:57.270Z,643.75
2023-06-30T12:27:27.327Z,629.27
2023-06-30T12:29:56.970Z,623.33
2023-06-30T12:32:29.619Z,610.20
2023-06-30T12:35:02.305Z,647.90
2023-06-30T12:37:32.317Z,607.65
2023-06-30T12:40:00.920Z,602.07
2023-06-30T12:42:30.725Z,590.90
2023-06-30T12:45:00.500Z,583.47
2023-06-30T12:47:28.603Z,596.53
2023-06-30T12:49:56.677Z,596.47
2023-06-30T12:52:24.690Z,621.60
2023-06-30T12:54:53.769Z,597.40
2023-06-30T12:57:21.828Z,600.13
2023-06-30T12:59:49.802Z,598.85
2023-06-30T13:02:19.403Z,585.60
2023-06-30T13:04:47.388Z,589.53
2023-06-30T13:07:15.469Z,583.03
2023-06-30T13:09:43.537Z,559.80
2023-06-30T13:12:11.791Z,587.87
2023-06-30T13:14:39.797Z,577.13
2023-06-30T13:17:08.516Z,581.03
2023-06-30T13:19:38.078Z,581.20
2023-06-30T13:22:06.946Z,566.92
2023-06-30T13:24:34.961Z,581.00
2023-06-30T13:27:03.000Z,586.03
2023-06-30T13:29:31.041Z,563.07
2023-06-30T13:31:59.001Z,575.10
2023-06-30T13:34:27.017Z,569.70
2023-06-30T13:36:56.481Z,570.80
2023-06-30T13:39:24.538Z,567.60
2023-06-30T13:41:52.524Z,587.22
2023-06-30T13:44:20.558Z,584.40
2023-06-30T13:46:48.558Z,640.42
2023-06-30T13:49:16.610Z,609.53
2023-06-30T13:51:44.586Z,608.55
2023-06-30T13:54:14.006Z,620.05
2023-06-30T13:56:42.023Z,616.25
2023-06-30T13:59:09.998Z,620.42
2023-06-30T14:01:38.088Z,627.13
2023-06-30T14:04:06.378Z,605.03
2023-06-30T14:06:34.542Z,653.63
2023-06-30T14:09:02.545Z,660.50
2023-06-30T14:11:31.993Z,634.95
2023-06-30T14:14:04.396Z,651.92
2023-06-30T14:16:32.859Z,625.38
2023-06-30T14:19:01.033Z,574.87
2023-06-30T14:21:31.697Z,584.67
2023-06-30T14:24:00.345Z,576.72
2023-06-30T14:26:30.948Z,593.38
2023-06-30T14:29:00.416Z,598.58
2023-06-30T14:31:28.439Z,625.10
2023-06-30T14:33:56.476Z,626.70
2023-06-30T14:36:24.491Z,641.90
2023-06-30T14:38:52.507Z,643.75
2023-06-30T14:41:20.570Z,653.13
2023-06-30T14:43:48.574Z,658.75
2023-06-30T14:46:18.026Z,672.17
2023-06-30T14:48:46.047Z,695.17
2023-06-30T14:51:14.049Z,703.03
2023-06-30T14:53:42.160Z,702.55
2023-06-30T14:56:10.161Z,714.22
2023-06-30T14:58:38.487Z,735.70
2023-06-30T15:01:06.976Z,748.22
2023-06-30T15:03:36.791Z,744.30
2023-06-30T15:06:04.944Z,718.92
2023-06-30T15:08:33.110Z,723.22
2023-06-30T15:11:01.858Z,706.65
2023-06-30T15:13:30.008Z,707.88
2023-06-30T15:15:58.639Z,684.83
2023-06-30T15:18:26.804Z,651.38
2023-06-30T15:20:56.160Z,653.00
2023-06-30T15:23:24.283Z,621.53
2023-06-30T15:25:52.414Z,622.10
2023-06-30T15:28:20.443Z,597.43
2023-06-30T15:30:48.754Z,605.70
2023-06-30T15:33:17.196Z,583.00
2023-06-30T15:35:45.608Z,583.67
2023-06-30T15:38:15.239Z,568.00
2023-06-30T15:40:43.461Z,559.30
2023-06-30T15:43:11.550Z,576.87
2023-06-30T15:45:39.544Z,562.77
2023-06-30T15:48:14.001Z,569.80
2023-06-30T15:50:42.506Z,556.93
2023-06-30T15:53:11.805Z,550.60
2023-06-30T15:55:43.516Z,548.83
2023-06-30T15:58:11.784Z,553.60
2023-06-30T16:00:40.526Z,544.10
2023-06-30T16:03:08.605Z,558.53
2023-06-30T16:05:37.170Z,582.83
2023-06-30T16:08:05.605Z,548.87
2023-06-30T16:10:33.669Z,571.03
2023-06-30T16:13:06.322Z,572.72
2023-06-30T16:15:36.250Z,551.88
2023-06-30T16:18:04.590Z,534.15
2023-06-30T16:20:32.616Z,535.90
2023-06-30T16:23:00.656Z,543.13
2023-06-30T16:25:28.648Z,516.37
2023-06-30T16:27:56.688Z,530.40
2023-06-30T16:30:30.964Z,527.37
2023-06-30T16:32:59.969Z,526.67
2023-06-30T16:35:28.500Z,519.90
2023-06-30T16:37:57.690Z,535.20
2023-06-30T16:40:25.877Z,522.67
2023-06-30T16:42:54.048Z,515.13
2023-06-30T16:45:22.588Z,516.83
2023-06-30T16:47:52.023Z,524.73
2023-06-30T16:50:20.050Z,542.73
2023-06-30T16:52:48.140Z,616.25
2023-06-30T16:55:17.544Z,606.78
2023-06-30T16:57:45.553Z,627.33
2023-06-30T17:00:14.609Z,641.85
2023-06-30T17:02:42.731Z,650.47
2023-06-30T17:05:13.687Z,650.17
2023-06-30T17:07:41.715Z,640.78
2023-06-30T17:10:10.358Z,641.47
2023-06-30T17:12:39.656Z,625.33
2023-06-30T17:15:10.368Z,624.67
2023-06-30T17:17:38.533Z,617.17
2023-06-30T17:20:07.815Z,634.55
2023-06-30T17:22:37.191Z,650.17
2023-06-30T17:25:06.177Z,632.63
2023-06-30T17:27:34.413Z,646.70
2023-06-30T17:30:02.429Z,636.78
2023-06-30T17:32:30.516Z,643.10
2023-06-30T17:34:58.552Z,630.65
2023-06-30T17:37:26.582Z,628.43
2023-06-30T17:39:55.946Z,626.30
2023-06-30T17:42:23.967Z,613.47
2023-06-30T17:44:52.040Z,641.97
2023-06-30T17:47:20.034Z,611.00
2023-06-30T17:49:48.400Z,587.17
2023-06-30T17:52:16.963Z,568.53
2023-06-30T17:54:45.191Z,566.97
2023-06-30T17:57:15.335Z,554.67
2023-06-30T17:59:43.331Z,555.13
2023-06-30T18:02:11.393Z,594.83
2023-06-30T18:04:39.571Z,576.40
2023-06-30T18:07:09.939Z,579.97
2023-06-30T18:09:39.513Z,577.47
2023-06-30T18:12:08.478Z,573.60
2023-06-30T18:14:38.611Z,555.33
2023-06-30T18:17:07.361Z,569.50
2023-06-30T18:19:35.455Z,589.92
2023-06-30T18:22:03.923Z,594.23
2023-06-30T18:24:31.948Z,578.83
2023-06-30T18:26:59.949Z,577.33
2023-06-30T18:29:27.969Z,594.17
2023-06-30T18:32:00.300Z,577.53
2023-06-30T18:34:30.063Z,570.92
2023-06-30T18:36:58.107Z,573.97
2023-06-30T18:39:26.172Z,562.37
2023-06-30T18:41:55.851Z,548.80
2023-06-30T18:44:25.949Z,525.30
2023-06-30T18:46:54.081Z,521.30
2023-06-30T18:49:24.828Z,526.93
2023-06-30T18:51:55.132Z,541.83
2023-06-30T18:54:23.414Z,527.93
2023-06-30T18:56:51.937Z,524.80
2023-06-30T18:59:19.962Z,504.63
2023-06-30T19:01:48.223Z,509.43
2023-06-30T19:04:16.686Z,500.83
2023-06-30T19:06:46.410Z,497.03
2023-06-30T19:09:14.660Z,487.50
2023-06-30T19:11:42.738Z,476.90
2023-06-30T19:14:10.850Z,484.07
2023-06-30T19:16:38.893Z,490.43
2023-06-30T19:19:06.864Z,504.90
2023-06-30T19:21:34.856Z,502.23
2023-06-30T19:24:04.319Z,492.93
2023-06-30T19:26:32.336Z,492.93
2023-06-30T19:29:00.328Z,477.70
2023-06-30T19:31:28.433Z,482.03
2023-06-30T19:33:56.527Z,479.30
2023-06-30T19:36:26.231Z,468.43
2023-06-30T19:38:54.270Z,489.27
2023-06-30T19:41:24.657Z,483.20
2023-06-30T19:43:52.873Z,482.50
2023-06-30T19:46:20.980Z,495.53
2023-06-30T19:48:49.115Z,479.80
2023-06-30T19:51:17.145Z,485.57
2023-06-30T19:53:45.196Z,468.80
2023-06-30T19:56:14.803Z,489.60
2023-06-30T19:58:44.855Z,479.53
2023-06-30T20:01:12.865Z,478.93
2023-06-30T20:03:41.160Z,395.58
2023-06-30T20:06:09.449Z,474.07
2023-06-30T20:08:37.432Z,494.07
2023-06-30T20:11:05.563Z,483.43
2023-06-30T20:13:33.566Z,454.93
2023-06-30T20:16:04.153Z,469.23
2023-06-30T20:18:32.169Z,469.67
2023-06-30T20:21:00.171Z,275.80
2023-06-30T20:23:28.211Z,472.03
2023-06-30T20:25:56.585Z,481.60
2023-06-30T20:28:24.578Z,443.33
2023-06-30T20:30:52.642Z,459.53
2023-06-30T20:33:22.075Z,467.43
2023-06-30T20:35:50.121Z,465.83
2023-06-30T20:38:19.177Z,468.43
2023-06-30T20:40:47.806Z,469.10
2023-06-30T20:43:16.296Z,428.90
2023-06-30T20:45:44.319Z,446.33
2023-06-30T20:48:12.402Z,439.57
2023-06-30T20:50:41.908Z,269.48
2023-06-30T20:53:10.180Z,452.77
2023-06-30T20:55:38.267Z,441.63
2023-06-30T20:58:06.265Z,431.20
2023-06-30T21:00:34.246Z,435.87
2023-06-30T21:03:02.392Z,476.97
2023-06-30T21:05:30.428Z,426.97
2023-06-30T21:07:59.828Z,497.47
2023-06-30T21:10:27.875Z,479.83
2023-06-30T21:13:00.567Z,464.17
2023-06-30T21:15:29.180Z,462.03
2023-06-30T21:17:57.242Z,468.60
2023-06-30T21:20:25.232Z,468.90
2023-06-30T21:22:53.240Z,450.77
2023-06-30T21:25:22.740Z,511.97
2023-06-30T21:27:50.774Z,477.73
2023-06-30T21:30:18.866Z,454.50
2023-06-30T21:32:46.911Z,288.70
2023-06-30T21:35:14.973Z,493.30
2023-06-30T21:37:42.996Z,444.80
2023-06-30T21:40:11.352Z,435.60
2023-06-30T21:42:40.795Z,441.02
2023-06-30T21:45:09.555Z,433.13
2023-06-30T21:47:37.633Z,432.80
2023-06-30T21:50:07.247Z,439.10
2023-06-30T21:52:35.446Z,441.80
2023-06-30T21:55:04.392Z,459.27
2023-06-30T21:57:32.421Z,462.30
2023-06-30T22:00:01.792Z,445.60
2023-06-30T22:02:29.947Z,462.20
2023-06-30T22:04:58.318Z,453.40
2023-06-30T22:07:26.419Z,429.33
2023-06-30T22:09:54.395Z,430.83
2023-06-30T22:12:22.368Z,442.03
2023-06-30T22:14:50.315Z,445.03
2023-06-30T22:17:19.738Z,464.00
2023-06-30T22:19:47.775Z,454.07
2023-06-30T22:22:15.755Z,434.07
2023-06-30T22:24:43.778Z,425.80
2023-06-30T22:27:11.802Z,413.87
2023-06-30T22:29:40.002Z,423.03
2023-06-30T22:32:08.728Z,451.07
2023-06-30T22:34:38.097Z,424.90
2023-06-30T22:37:06.819Z,437.13
2023-06-30T22:39:34.822Z,445.97
2023-06-30T22:42:02.814Z,434.17
2023-06-30T22:44:30.822Z,431.83
2023-06-30T22:46:58.845Z,434.53
2023-06-30T22:49:26.873Z,462.73
2023-06-30T22:51:56.511Z,450.80
2023-06-30T22:54:24.543Z,432.30
2023-06-30T22:56:52.723Z,440.23
2023-06-30T22:59:20.765Z,427.23
2023-06-30T23:01:48.740Z,424.70
2023-06-30T23:04:16.860Z,432.77
2023-06-30T23:06:45.037Z,453.47
2023-06-30T23:09:14.366Z,421.37
2023-06-30T23:11:42.336Z,457.10
2023-06-30T23:14:10.390Z,447.73
2023-06-30T23:16:39.372Z,476.77
2023-06-30T23:19:08.266Z,452.47
2023-06-30T23:21:37.175Z,443.70
2023-06-30T23:24:10.564Z,459.83
2023-06-30T23:26:41.433Z,455.60
2023-06-30T23:29:10.570Z,432.90
2023-06-30T23:31:39.530Z,421.53
2023-06-30T23:34:07.890Z,431.23
2023-06-30T23:36:36.421Z,423.77
2023-06-30T23:39:04.967Z,408.40
2023-06-30T23:41:33.676Z,418.20
2023-06-30T23:44:03.186Z,465.67
2023-06-30T23:46:31.602Z,406.07
2023-06-30T23:48:59.885Z,425.80
2023-06-30T23:51:27.856Z,408.03
2023-06-30T23:53:55.845Z,437.50
2023-06-30T23:56:23.824Z,415.47
2023-06-30T23:58:51.832Z,420.30
